Messias Targino, Brazil
Current Conditions -  °F | °C
As of 12:00 AM on Saturday 22 Nov 2014 (Local Time) from SBKG Reporting Station
Broken Clouds Broken Clouds  
Wind Chill: 70°   Ceiling: 1500
Heat Index: 70°   Visibility: 6mi
Dew Point: 68°   Wind: 8mph
Humidity: 94%   Direction: 100°E
Pressure: 29.97"   Gusts: NA
Location:  6.08°S, 37.51°W
Report Text: SBKG 220300Z 10007KT 9999 SCT010 BKN015 21/20 Q1015
Loading
Personal Weather Stations






























Interactive Weather Map New forecast layout! Learn more

10-Day Weather Forecast

Advertisements
Track Severe Weather on mobile